sensor_id;sensor_type;location;lat;lon;timestamp;P1;durP1;ratioP1;P2;durP2;ratioP2
19127;SDS011;9696;53.686;10.094;2022-12-07T00:01:49;15.30;;;7.80;;
19127;SDS011;9696;53.686;10.094;2022-12-07T00:04:18;12.40;;;6.23;;
19127;SDS011;9696;53.686;10.094;2022-12-07T00:06:50;17.07;;;6.50;;
19127;SDS011;9696;53.686;10.094;2022-12-07T00:09:20;18.80;;;5.63;;
19127;SDS011;9696;53.686;10.094;2022-12-07T00:11:50;15.40;;;8.37;;
19127;SDS011;9696;53.686;10.094;2022-12-07T00:14:21;16.33;;;7.60;;
19127;SDS011;9696;53.686;10.094;2022-12-07T00:16:51;15.13;;;7.40;;
19127;SDS011;9696;53.686;10.094;2022-12-07T00:19:20;12.63;;;6.47;;
19127;SDS011;9696;53.686;10.094;2022-12-07T00:21:49;15.57;;;8.00;;
19127;SDS011;9696;53.686;10.094;2022-12-07T00:24:19;15.43;;;7.27;;
19127;SDS011;9696;53.686;10.094;2022-12-07T00:26:48;12.20;;;6.60;;
19127;SDS011;9696;53.686;10.094;2022-12-07T00:29:18;14.57;;;7.87;;
19127;SDS011;9696;53.686;10.094;2022-12-07T00:31:49;14.90;;;7.23;;
19127;SDS011;9696;53.686;10.094;2022-12-07T00:34:19;13.60;;;7.73;;
19127;SDS011;9696;53.686;10.094;2022-12-07T00:36:49;13.03;;;7.60;;
19127;SDS011;9696;53.686;10.094;2022-12-07T00:39:18;15.50;;;7.77;;
19127;SDS011;9696;53.686;10.094;2022-12-07T00:41:47;12.17;;;6.63;;
19127;SDS011;9696;53.686;10.094;2022-12-07T00:44:16;10.00;;;6.47;;
19127;SDS011;9696;53.686;10.094;2022-12-07T00:46:46;11.77;;;7.33;;
19127;SDS011;9696;53.686;10.094;2022-12-07T00:49:16;14.93;;;8.23;;
19127;SDS011;9696;53.686;10.094;2022-12-07T00:51:47;14.73;;;7.50;;
19127;SDS011;9696;53.686;10.094;2022-12-07T00:54:16;13.53;;;6.93;;
19127;SDS011;9696;53.686;10.094;2022-12-07T00:56:46;13.90;;;7.73;;
19127;SDS011;9696;53.686;10.094;2022-12-07T00:59:15;11.43;;;6.73;;
19127;SDS011;9696;53.686;10.094;2022-12-07T01:01:44;11.33;;;6.20;;
19127;SDS011;9696;53.686;10.094;2022-12-07T01:04:13;14.63;;;6.67;;
19127;SDS011;9696;53.686;10.094;2022-12-07T01:06:44;18.13;;;8.37;;
19127;SDS011;9696;53.686;10.094;2022-12-07T01:09:13;12.10;;;6.43;;
19127;SDS011;9696;53.686;10.094;2022-12-07T01:11:42;12.27;;;6.13;;
19127;SDS011;9696;53.686;10.094;2022-12-07T01:14:11;10.80;;;6.43;;
19127;SDS011;9696;53.686;10.094;2022-12-07T01:16:40;14.13;;;6.90;;
19127;SDS011;9696;53.686;10.094;2022-12-07T01:19:09;13.10;;;6.97;;
19127;SDS011;9696;53.686;10.094;2022-12-07T01:21:38;12.17;;;6.63;;
19127;SDS011;9696;53.686;10.094;2022-12-07T01:24:10;11.60;;;6.23;;
19127;SDS011;9696;53.686;10.094;2022-12-07T01:26:39;11.87;;;7.10;;
19127;SDS011;9696;53.686;10.094;2022-12-07T01:29:09;9.93;;;5.57;;
19127;SDS011;9696;53.686;10.094;2022-12-07T01:31:38;12.23;;;6.40;;
19127;SDS011;9696;53.686;10.094;2022-12-07T01:34:10;12.43;;;6.33;;
19127;SDS011;9696;53.686;10.094;2022-12-07T01:36:39;10.40;;;5.93;;
19127;SDS011;9696;53.686;10.094;2022-12-07T01:39:09;14.83;;;6.10;;
19127;SDS011;9696;53.686;10.094;2022-12-07T01:41:39;12.30;;;5.57;;
19127;SDS011;9696;53.686;10.094;2022-12-07T01:44:15;12.50;;;5.27;;
19127;SDS011;9696;53.686;10.094;2022-12-07T01:46:46;13.00;;;5.63;;
19127;SDS011;9696;53.686;10.094;2022-12-07T01:49:18;13.17;;;5.63;;
19127;SDS011;9696;53.686;10.094;2022-12-07T01:51:51;13.27;;;5.57;;
19127;SDS011;9696;53.686;10.094;2022-12-07T01:54:26;13.30;;;5.90;;
19127;SDS011;9696;53.686;10.094;2022-12-07T01:56:55;9.83;;;5.17;;
19127;SDS011;9696;53.686;10.094;2022-12-07T01:59:26;12.03;;;5.57;;
19127;SDS011;9696;53.686;10.094;2022-12-07T03:13:22;3.33;;;1.87;;
19127;SDS011;9696;53.686;10.094;2022-12-07T03:15:57;12.87;;;2.57;;
19127;SDS011;9696;53.686;10.094;2022-12-07T03:18:36;3.63;;;2.00;;
19127;SDS011;9696;53.686;10.094;2022-12-07T03:21:10;3.47;;;2.07;;
19127;SDS011;9696;53.686;10.094;2022-12-07T03:23:43;5.10;;;2.23;;
19127;SDS011;9696;53.686;10.094;2022-12-07T03:26:17;5.67;;;2.50;;
19127;SDS011;9696;53.686;10.094;2022-12-07T03:28:51;5.73;;;1.90;;
19127;SDS011;9696;53.686;10.094;2022-12-07T03:31:24;4.00;;;1.90;;
19127;SDS011;9696;53.686;10.094;2022-12-07T03:33:59;4.70;;;1.50;;
19127;SDS011;9696;53.686;10.094;2022-12-07T03:36:35;3.77;;;1.73;;
19127;SDS011;9696;53.686;10.094;2022-12-07T03:39:12;2.30;;;1.57;;
19127;SDS011;9696;53.686;10.094;2022-12-07T03:41:47;3.13;;;1.53;;
19127;SDS011;9696;53.686;10.094;2022-12-07T03:44:18;2.93;;;1.40;;
19127;SDS011;9696;53.686;10.094;2022-12-07T03:46:50;1.60;;;1.13;;
19127;SDS011;9696;53.686;10.094;2022-12-07T03:49:27;4.30;;;1.73;;
19127;SDS011;9696;53.686;10.094;2022-12-07T03:52:06;1.97;;;1.10;;
19127;SDS011;9696;53.686;10.094;2022-12-07T03:54:47;3.07;;;1.20;;
19127;SDS011;9696;53.686;10.094;2022-12-07T03:57:21;1.23;;;0.97;;
19127;SDS011;9696;53.686;10.094;2022-12-07T03:59:54;5.53;;;1.20;;
19127;SDS011;9696;53.686;10.094;2022-12-07T04:02:26;2.57;;;1.40;;
19127;SDS011;9696;53.686;10.094;2022-12-07T04:04:56;1.80;;;1.20;;
19127;SDS011;9696;53.686;10.094;2022-12-07T04:07:25;3.07;;;1.20;;
19127;SDS011;9696;53.686;10.094;2022-12-07T04:09:55;4.90;;;1.47;;
19127;SDS011;9696;53.686;10.094;2022-12-07T04:12:24;3.67;;;1.30;;
19127;SDS011;9696;53.686;10.094;2022-12-07T04:14:54;6.87;;;1.60;;
19127;SDS011;9696;53.686;10.094;2022-12-07T04:17:24;2.87;;;1.40;;
19127;SDS011;9696;53.686;10.094;2022-12-07T04:19:53;2.40;;;1.37;;
19127;SDS011;9696;53.686;10.094;2022-12-07T04:22:22;2.83;;;1.77;;
19127;SDS011;9696;53.686;10.094;2022-12-07T04:24:51;3.17;;;1.30;;
19127;SDS011;9696;53.686;10.094;2022-12-07T04:27:20;5.27;;;2.00;;
19127;SDS011;9696;53.686;10.094;2022-12-07T04:29:49;4.00;;;1.40;;
19127;SDS011;9696;53.686;10.094;2022-12-07T04:32:20;2.37;;;1.60;;
19127;SDS011;9696;53.686;10.094;2022-12-07T04:34:49;5.67;;;1.70;;
19127;SDS011;9696;53.686;10.094;2022-12-07T04:37:22;3.13;;;1.70;;
19127;SDS011;9696;53.686;10.094;2022-12-07T04:39:51;2.80;;;1.73;;
19127;SDS011;9696;53.686;10.094;2022-12-07T04:42:21;4.73;;;1.83;;
19127;SDS011;9696;53.686;10.094;2022-12-07T04:44:50;5.07;;;2.20;;
19127;SDS011;9696;53.686;10.094;2022-12-07T04:47:20;9.67;;;2.00;;
19127;SDS011;9696;53.686;10.094;2022-12-07T04:49:49;7.93;;;2.07;;
19127;SDS011;9696;53.686;10.094;2022-12-07T04:52:19;2.70;;;1.87;;
19127;SDS011;9696;53.686;10.094;2022-12-07T04:54:48;4.43;;;1.73;;
19127;SDS011;9696;53.686;10.094;2022-12-07T04:57:17;3.13;;;1.60;;
19127;SDS011;9696;53.686;10.094;2022-12-07T04:59:46;7.57;;;2.57;;
19127;SDS011;9696;53.686;10.094;2022-12-07T05:02:15;2.83;;;1.73;;
19127;SDS011;9696;53.686;10.094;2022-12-07T05:04:46;4.10;;;2.13;;
19127;SDS011;9696;53.686;10.094;2022-12-07T05:07:15;6.17;;;1.87;;
19127;SDS011;9696;53.686;10.094;2022-12-07T05:09:44;5.97;;;1.90;;
19127;SDS011;9696;53.686;10.094;2022-12-07T05:12:13;6.63;;;2.00;;
19127;SDS011;9696;53.686;10.094;2022-12-07T05:14:42;9.27;;;2.47;;
19127;SDS011;9696;53.686;10.094;2022-12-07T05:17:12;8.80;;;1.73;;
19127;SDS011;9696;53.686;10.094;2022-12-07T05:19:41;3.37;;;2.00;;
19127;SDS011;9696;53.686;10.094;2022-12-07T05:22:11;9.10;;;2.07;;
19127;SDS011;9696;53.686;10.094;2022-12-07T05:24:42;3.17;;;2.00;;
19127;SDS011;9696;53.686;10.094;2022-12-07T05:27:11;3.53;;;2.07;;
19127;SDS011;9696;53.686;10.094;2022-12-07T05:29:40;4.70;;;2.10;;
19127;SDS011;9696;53.686;10.094;2022-12-07T05:32:09;7.33;;;2.47;;
19127;SDS011;9696;53.686;10.094;2022-12-07T05:34:38;3.87;;;2.27;;
19127;SDS011;9696;53.686;10.094;2022-12-07T05:37:07;3.97;;;2.13;;
19127;SDS011;9696;53.686;10.094;2022-12-07T05:39:38;8.37;;;2.33;;
19127;SDS011;9696;53.686;10.094;2022-12-07T05:42:10;4.40;;;2.60;;
19127;SDS011;9696;53.686;10.094;2022-12-07T05:44:42;4.50;;;2.00;;
19127;SDS011;9696;53.686;10.094;2022-12-07T05:47:13;2.07;;;1.53;;
19127;SDS011;9696;53.686;10.094;2022-12-07T05:49:43;5.77;;;2.17;;
19127;SDS011;9696;53.686;10.094;2022-12-07T05:52:12;5.57;;;2.30;;
19127;SDS011;9696;53.686;10.094;2022-12-07T05:54:43;5.17;;;2.53;;
19127;SDS011;9696;53.686;10.094;2022-12-07T05:57:12;3.97;;;2.30;;
19127;SDS011;9696;53.686;10.094;2022-12-07T05:59:41;4.77;;;1.97;;
19127;SDS011;9696;53.686;10.094;2022-12-07T06:02:10;4.33;;;2.67;;
19127;SDS011;9696;53.686;10.094;2022-12-07T06:04:41;3.27;;;2.10;;
19127;SDS011;9696;53.686;10.094;2022-12-07T06:07:14;3.43;;;2.03;;
19127;SDS011;9696;53.686;10.094;2022-12-07T06:09:46;9.00;;;2.57;;
19127;SDS011;9696;53.686;10.094;2022-12-07T06:12:16;6.67;;;2.20;;
19127;SDS011;9696;53.686;10.094;2022-12-07T06:15:07;4.93;;;2.33;;
19127;SDS011;9696;53.686;10.094;2022-12-07T06:17:40;4.87;;;2.50;;
19127;SDS011;9696;53.686;10.094;2022-12-07T06:20:10;6.53;;;2.93;;
19127;SDS011;9696;53.686;10.094;2022-12-07T06:22:40;7.23;;;3.10;;
19127;SDS011;9696;53.686;10.094;2022-12-07T06:25:12;5.73;;;2.37;;
19127;SDS011;9696;53.686;10.094;2022-12-07T06:27:42;3.77;;;2.30;;
19127;SDS011;9696;53.686;10.094;2022-12-07T06:30:12;7.77;;;2.97;;
19127;SDS011;9696;53.686;10.094;2022-12-07T06:32:42;5.53;;;2.83;;
19127;SDS011;9696;53.686;10.094;2022-12-07T06:35:11;3.67;;;1.97;;
19127;SDS011;9696;53.686;10.094;2022-12-07T06:37:40;6.23;;;2.60;;
19127;SDS011;9696;53.686;10.094;2022-12-07T06:40:11;9.70;;;2.50;;
19127;SDS011;9696;53.686;10.094;2022-12-07T06:42:41;4.57;;;3.03;;
19127;SDS011;9696;53.686;10.094;2022-12-07T06:45:10;5.77;;;2.20;;
19127;SDS011;9696;53.686;10.094;2022-12-07T06:47:39;4.73;;;2.60;;
19127;SDS011;9696;53.686;10.094;2022-12-07T06:50:12;3.17;;;2.23;;
19127;SDS011;9696;53.686;10.094;2022-12-07T06:52:41;5.30;;;3.07;;
19127;SDS011;9696;53.686;10.094;2022-12-07T06:55:11;5.40;;;2.30;;
19127;SDS011;9696;53.686;10.094;2022-12-07T06:57:40;9.00;;;2.50;;
19127;SDS011;9696;53.686;10.094;2022-12-07T07:00:10;4.37;;;2.53;;
19127;SDS011;9696;53.686;10.094;2022-12-07T07:02:47;4.70;;;2.73;;
19127;SDS011;9696;53.686;10.094;2022-12-07T07:05:17;8.23;;;3.20;;
19127;SDS011;9696;53.686;10.094;2022-12-07T07:07:48;2.80;;;2.13;;
19127;SDS011;9696;53.686;10.094;2022-12-07T07:10:39;4.60;;;2.60;;
19127;SDS011;9696;53.686;10.094;2022-12-07T07:13:08;2.77;;;1.93;;
19127;SDS011;9696;53.686;10.094;2022-12-07T07:15:37;3.43;;;2.50;;
19127;SDS011;9696;53.686;10.094;2022-12-07T07:18:07;5.40;;;2.67;;
19127;SDS011;9696;53.686;10.094;2022-12-07T07:20:36;16.97;;;2.10;;
19127;SDS011;9696;53.686;10.094;2022-12-07T07:23:05;3.10;;;1.90;;
19127;SDS011;9696;53.686;10.094;2022-12-07T07:25:35;3.43;;;2.30;;
19127;SDS011;9696;53.686;10.094;2022-12-07T07:28:06;6.20;;;2.20;;
19127;SDS011;9696;53.686;10.094;2022-12-07T07:30:35;3.37;;;1.73;;
19127;SDS011;9696;53.686;10.094;2022-12-07T07:33:04;2.77;;;2.13;;
19127;SDS011;9696;53.686;10.094;2022-12-07T07:35:34;9.63;;;2.27;;
19127;SDS011;9696;53.686;10.094;2022-12-07T07:38:03;2.73;;;1.97;;
19127;SDS011;9696;53.686;10.094;2022-12-07T07:40:33;4.77;;;2.37;;
19127;SDS011;9696;53.686;10.094;2022-12-07T07:43:03;3.80;;;2.20;;
19127;SDS011;9696;53.686;10.094;2022-12-07T07:45:34;3.80;;;2.13;;
19127;SDS011;9696;53.686;10.094;2022-12-07T07:48:03;4.27;;;2.00;;
19127;SDS011;9696;53.686;10.094;2022-12-07T07:50:33;12.17;;;2.07;;
19127;SDS011;9696;53.686;10.094;2022-12-07T07:53:02;9.63;;;2.43;;
19127;SDS011;9696;53.686;10.094;2022-12-07T07:55:31;3.03;;;1.90;;
19127;SDS011;9696;53.686;10.094;2022-12-07T07:58:01;4.30;;;2.07;;
19127;SDS011;9696;53.686;10.094;2022-12-07T08:00:31;5.33;;;1.90;;
19127;SDS011;9696;53.686;10.094;2022-12-07T08:03:00;4.30;;;2.33;;
19127;SDS011;9696;53.686;10.094;2022-12-07T08:05:29;9.07;;;2.43;;
19127;SDS011;9696;53.686;10.094;2022-12-07T08:07:58;11.53;;;2.13;;
19127;SDS011;9696;53.686;10.094;2022-12-07T08:10:28;3.13;;;1.87;;
19127;SDS011;9696;53.686;10.094;2022-12-07T08:29:35;3.13;;;1.30;;
19127;SDS011;9696;53.686;10.094;2022-12-07T08:32:05;9.77;;;1.80;;
19127;SDS011;9696;53.686;10.094;2022-12-07T08:34:38;5.20;;;1.63;;
19127;SDS011;9696;53.686;10.094;2022-12-07T08:37:07;5.73;;;1.27;;
19127;SDS011;9696;53.686;10.094;2022-12-07T08:39:40;2.37;;;1.03;;
19127;SDS011;9696;53.686;10.094;2022-12-07T08:42:09;2.57;;;1.30;;
19127;SDS011;9696;53.686;10.094;2022-12-07T08:44:40;3.23;;;1.53;;
19127;SDS011;9696;53.686;10.094;2022-12-07T08:47:13;3.73;;;1.37;;
19127;SDS011;9696;53.686;10.094;2022-12-07T08:49:44;1.60;;;1.07;;
19127;SDS011;9696;53.686;10.094;2022-12-07T08:52:17;3.17;;;1.50;;
19127;SDS011;9696;53.686;10.094;2022-12-07T08:54:48;1.17;;;0.87;;
19127;SDS011;9696;53.686;10.094;2022-12-07T08:57:17;1.20;;;0.90;;
19127;SDS011;9696;53.686;10.094;2022-12-07T08:59:51;2.90;;;0.90;;
19127;SDS011;9696;53.686;10.094;2022-12-07T09:02:20;1.70;;;0.83;;
19127;SDS011;9696;53.686;10.094;2022-12-07T09:04:51;1.77;;;0.70;;
19127;SDS011;9696;53.686;10.094;2022-12-07T09:07:21;6.77;;;1.20;;
19127;SDS011;9696;53.686;10.094;2022-12-07T09:09:53;20.40;;;1.17;;
19127;SDS011;9696;53.686;10.094;2022-12-07T09:12:24;4.93;;;1.00;;
19127;SDS011;9696;53.686;10.094;2022-12-07T09:14:56;1.33;;;0.97;;
19127;SDS011;9696;53.686;10.094;2022-12-07T09:17:27;6.50;;;1.00;;
19127;SDS011;9696;53.686;10.094;2022-12-07T09:20:03;2.53;;;1.17;;
19127;SDS011;9696;53.686;10.094;2022-12-07T09:22:33;2.97;;;1.07;;
19127;SDS011;9696;53.686;10.094;2022-12-07T09:25:04;3.93;;;1.00;;
19127;SDS011;9696;53.686;10.094;2022-12-07T09:27:40;3.63;;;1.00;;
19127;SDS011;9696;53.686;10.094;2022-12-07T09:30:12;12.17;;;0.90;;
19127;SDS011;9696;53.686;10.094;2022-12-07T09:32:42;2.40;;;0.77;;
19127;SDS011;9696;53.686;10.094;2022-12-07T09:35:13;10.00;;;1.07;;
19127;SDS011;9696;53.686;10.094;2022-12-07T09:37:45;9.03;;;1.13;;
19127;SDS011;9696;53.686;10.094;2022-12-07T09:40:14;4.07;;;1.00;;
19127;SDS011;9696;53.686;10.094;2022-12-07T09:42:47;3.00;;;0.90;;
19127;SDS011;9696;53.686;10.094;2022-12-07T09:45:22;4.53;;;1.20;;
19127;SDS011;9696;53.686;10.094;2022-12-07T09:48:01;2.33;;;0.77;;
19127;SDS011;9696;53.686;10.094;2022-12-07T09:50:33;7.37;;;1.10;;
19127;SDS011;9696;53.686;10.094;2022-12-07T09:53:14;5.73;;;1.20;;
19127;SDS011;9696;53.686;10.094;2022-12-07T09:55:48;6.53;;;1.57;;
19127;SDS011;9696;53.686;10.094;2022-12-07T09:58:20;3.73;;;1.30;;
19127;SDS011;9696;53.686;10.094;2022-12-07T10:00:53;5.80;;;2.90;;
19127;SDS011;9696;53.686;10.094;2022-12-07T10:03:29;5.63;;;2.40;;
19127;SDS011;9696;53.686;10.094;2022-12-07T10:06:01;7.40;;;2.73;;
19127;SDS011;9696;53.686;10.094;2022-12-07T10:08:32;5.53;;;1.13;;
19127;SDS011;9696;53.686;10.094;2022-12-07T10:11:02;3.33;;;1.43;;
19127;SDS011;9696;53.686;10.094;2022-12-07T10:13:37;4.57;;;1.67;;
19127;SDS011;9696;53.686;10.094;2022-12-07T10:16:27;5.53;;;1.80;;
19127;SDS011;9696;53.686;10.094;2022-12-07T10:19:19;19.17;;;5.00;;
19127;SDS011;9696;53.686;10.094;2022-12-07T10:22:02;20.00;;;8.13;;
19127;SDS011;9696;53.686;10.094;2022-12-07T10:24:38;3.13;;;1.63;;
19127;SDS011;9696;53.686;10.094;2022-12-07T10:27:17;4.37;;;1.20;;
19127;SDS011;9696;53.686;10.094;2022-12-07T10:29:48;6.27;;;1.10;;
19127;SDS011;9696;53.686;10.094;2022-12-07T10:32:29;3.47;;;1.30;;
19127;SDS011;9696;53.686;10.094;2022-12-07T10:35:18;2.23;;;1.43;;
19127;SDS011;9696;53.686;10.094;2022-12-07T10:37:52;2.57;;;1.40;;
19127;SDS011;9696;53.686;10.094;2022-12-07T10:40:28;5.40;;;1.20;;
19127;SDS011;9696;53.686;10.094;2022-12-07T10:43:01;4.57;;;0.70;;
19127;SDS011;9696;53.686;10.094;2022-12-07T10:45:59;3.97;;;1.27;;
19127;SDS011;9696;53.686;10.094;2022-12-07T10:48:54;5.33;;;1.10;;
19127;SDS011;9696;53.686;10.094;2022-12-07T10:51:33;5.17;;;1.10;;
19127;SDS011;9696;53.686;10.094;2022-12-07T10:54:15;3.60;;;0.80;;
19127;SDS011;9696;53.686;10.094;2022-12-07T10:57:01;4.00;;;1.60;;
19127;SDS011;9696;53.686;10.094;2022-12-07T10:59:49;5.50;;;1.10;;
19127;SDS011;9696;53.686;10.094;2022-12-07T11:02:33;5.53;;;1.10;;
19127;SDS011;9696;53.686;10.094;2022-12-07T11:05:17;3.70;;;1.13;;
19127;SDS011;9696;53.686;10.094;2022-12-07T11:07:57;3.23;;;1.30;;
19127;SDS011;9696;53.686;10.094;2022-12-07T11:10:35;12.07;;;3.40;;
19127;SDS011;9696;53.686;10.094;2022-12-07T11:13:16;6.13;;;2.03;;
19127;SDS011;9696;53.686;10.094;2022-12-07T11:15:59;2.23;;;1.03;;
19127;SDS011;9696;53.686;10.094;2022-12-07T11:18:52;2.20;;;0.97;;
19127;SDS011;9696;53.686;10.094;2022-12-07T11:21:55;5.20;;;1.17;;
19127;SDS011;9696;53.686;10.094;2022-12-07T11:24:31;3.00;;;1.10;;
19127;SDS011;9696;53.686;10.094;2022-12-07T11:27:14;4.50;;;1.00;;
19127;SDS011;9696;53.686;10.094;2022-12-07T11:30:02;3.20;;;0.90;;
19127;SDS011;9696;53.686;10.094;2022-12-07T11:32:50;9.87;;;2.97;;
19127;SDS011;9696;53.686;10.094;2022-12-07T11:35:35;6.40;;;1.93;;
19127;SDS011;9696;53.686;10.094;2022-12-07T11:38:15;7.10;;;1.73;;
19127;SDS011;9696;53.686;10.094;2022-12-07T11:40:55;7.33;;;1.50;;
19127;SDS011;9696;53.686;10.094;2022-12-07T11:43:50;17.67;;;5.93;;
19127;SDS011;9696;53.686;10.094;2022-12-07T11:46:24;8.73;;;2.33;;
19127;SDS011;9696;53.686;10.094;2022-12-07T11:48:58;7.90;;;2.83;;
19127;SDS011;9696;53.686;10.094;2022-12-07T11:51:36;4.67;;;1.20;;
19127;SDS011;9696;53.686;10.094;2022-12-07T11:54:14;12.63;;;3.57;;
19127;SDS011;9696;53.686;10.094;2022-12-07T11:56:46;5.07;;;1.47;;
19127;SDS011;9696;53.686;10.094;2022-12-07T11:59:22;2.47;;;0.73;;
19127;SDS011;9696;53.686;10.094;2022-12-07T12:02:03;14.13;;;1.20;;
19127;SDS011;9696;53.686;10.094;2022-12-07T12:04:47;1.90;;;1.30;;
19127;SDS011;9696;53.686;10.094;2022-12-07T12:07:28;6.80;;;1.50;;
19127;SDS011;9696;53.686;10.094;2022-12-07T12:10:31;5.93;;;1.17;;
19127;SDS011;9696;53.686;10.094;2022-12-07T12:13:26;3.30;;;0.67;;
19127;SDS011;9696;53.686;10.094;2022-12-07T12:16:44;7.50;;;1.20;;
19127;SDS011;9696;53.686;10.094;2022-12-07T12:19:30;4.03;;;1.10;;
19127;SDS011;9696;53.686;10.094;2022-12-07T12:22:10;3.60;;;0.93;;
19127;SDS011;9696;53.686;10.094;2022-12-07T12:24:44;2.80;;;1.00;;
19127;SDS011;9696;53.686;10.094;2022-12-07T12:27:20;3.90;;;1.17;;
19127;SDS011;9696;53.686;10.094;2022-12-07T12:29:54;4.43;;;1.07;;
19127;SDS011;9696;53.686;10.094;2022-12-07T12:32:31;5.10;;;0.87;;
19127;SDS011;9696;53.686;10.094;2022-12-07T12:35:27;4.60;;;1.07;;
19127;SDS011;9696;53.686;10.094;2022-12-07T12:40:59;12.33;;;1.27;;
19127;SDS011;9696;53.686;10.094;2022-12-07T12:43:44;7.13;;;0.90;;
19127;SDS011;9696;53.686;10.094;2022-12-07T12:46:45;4.53;;;1.23;;
19127;SDS011;9696;53.686;10.094;2022-12-07T12:58:47;1.90;;;0.90;;
19127;SDS011;9696;53.686;10.094;2022-12-07T13:07:11;5.53;;;0.77;;
19127;SDS011;9696;53.686;10.094;2022-12-07T13:10:04;16.17;;;1.07;;
19127;SDS011;9696;53.686;10.094;2022-12-07T13:12:55;3.60;;;0.57;;
19127;SDS011;9696;53.686;10.094;2022-12-07T13:15:34;10.57;;;0.90;;
19127;SDS011;9696;53.686;10.094;2022-12-07T13:18:22;5.53;;;0.67;;
19127;SDS011;9696;53.686;10.094;2022-12-07T13:20:54;6.10;;;0.70;;
19127;SDS011;9696;53.686;10.094;2022-12-07T13:23:26;1.30;;;0.50;;
19127;SDS011;9696;53.686;10.094;2022-12-07T13:26:02;4.83;;;0.57;;
19127;SDS011;9696;53.686;10.094;2022-12-07T13:28:45;2.10;;;0.50;;
19127;SDS011;9696;53.686;10.094;2022-12-07T13:31:23;2.50;;;0.70;;
19127;SDS011;9696;53.686;10.094;2022-12-07T13:33:59;3.40;;;0.70;;
19127;SDS011;9696;53.686;10.094;2022-12-07T13:36:32;5.00;;;0.67;;
19127;SDS011;9696;53.686;10.094;2022-12-07T13:39:17;4.40;;;0.90;;
19127;SDS011;9696;53.686;10.094;2022-12-07T13:41:51;3.67;;;0.73;;
19127;SDS011;9696;53.686;10.094;2022-12-07T13:44:25;0.37;;;0.37;;
19127;SDS011;9696;53.686;10.094;2022-12-07T13:46:59;2.63;;;0.50;;
19127;SDS011;9696;53.686;10.094;2022-12-07T13:49:37;2.17;;;0.70;;
19127;SDS011;9696;53.686;10.094;2022-12-07T13:52:20;5.77;;;0.80;;
19127;SDS011;9696;53.686;10.094;2022-12-07T13:54:55;3.70;;;0.63;;
19127;SDS011;9696;53.686;10.094;2022-12-07T13:57:27;1.17;;;0.60;;
19127;SDS011;9696;53.686;10.094;2022-12-07T13:59:58;1.27;;;0.50;;
19127;SDS011;9696;53.686;10.094;2022-12-07T14:02:32;5.87;;;1.40;;
19127;SDS011;9696;53.686;10.094;2022-12-07T14:05:12;0.40;;;0.40;;
19127;SDS011;9696;53.686;10.094;2022-12-07T14:07:53;1.13;;;0.50;;
19127;SDS011;9696;53.686;10.094;2022-12-07T14:10:25;2.13;;;0.60;;
19127;SDS011;9696;53.686;10.094;2022-12-07T14:12:59;1.20;;;0.50;;
19127;SDS011;9696;53.686;10.094;2022-12-07T14:15:31;1.90;;;0.60;;
19127;SDS011;9696;53.686;10.094;2022-12-07T14:18:37;2.43;;;0.50;;
19127;SDS011;9696;53.686;10.094;2022-12-07T14:21:14;1.90;;;0.63;;
19127;SDS011;9696;53.686;10.094;2022-12-07T14:23:45;1.03;;;0.77;;
19127;SDS011;9696;53.686;10.094;2022-12-07T14:26:30;3.77;;;0.80;;
19127;SDS011;9696;53.686;10.094;2022-12-07T14:31:48;1.07;;;0.70;;
19127;SDS011;9696;53.686;10.094;2022-12-07T14:34:22;0.73;;;0.70;;
19127;SDS011;9696;53.686;10.094;2022-12-07T14:36:54;2.83;;;0.70;;
19127;SDS011;9696;53.686;10.094;2022-12-07T14:39:23;1.87;;;0.53;;
19127;SDS011;9696;53.686;10.094;2022-12-07T14:41:53;4.67;;;0.83;;
19127;SDS011;9696;53.686;10.094;2022-12-07T14:44:26;2.77;;;0.70;;
19127;SDS011;9696;53.686;10.094;2022-12-07T14:47:03;1.50;;;0.70;;
19127;SDS011;9696;53.686;10.094;2022-12-07T14:49:56;1.33;;;0.70;;
19127;SDS011;9696;53.686;10.094;2022-12-07T14:52:32;2.03;;;0.63;;
19127;SDS011;9696;53.686;10.094;2022-12-07T14:55:23;1.73;;;0.70;;
19127;SDS011;9696;53.686;10.094;2022-12-07T14:57:54;1.90;;;0.80;;
19127;SDS011;9696;53.686;10.094;2022-12-07T15:00:26;1.33;;;0.60;;
19127;SDS011;9696;53.686;10.094;2022-12-07T15:02:56;1.57;;;0.73;;
19127;SDS011;9696;53.686;10.094;2022-12-07T15:05:31;2.30;;;0.73;;
19127;SDS011;9696;53.686;10.094;2022-12-07T15:08:02;2.90;;;0.70;;
19127;SDS011;9696;53.686;10.094;2022-12-07T15:10:33;1.03;;;0.50;;
19127;SDS011;9696;53.686;10.094;2022-12-07T15:13:06;1.40;;;0.77;;
19127;SDS011;9696;53.686;10.094;2022-12-07T15:16:00;4.23;;;0.80;;
19127;SDS011;9696;53.686;10.094;2022-12-07T15:18:33;2.27;;;1.00;;
19127;SDS011;9696;53.686;10.094;2022-12-07T15:21:11;2.80;;;0.93;;
19127;SDS011;9696;53.686;10.094;2022-12-07T15:23:44;6.90;;;1.20;;
19127;SDS011;9696;53.686;10.094;2022-12-07T15:26:19;1.27;;;0.47;;
19127;SDS011;9696;53.686;10.094;2022-12-07T15:28:48;1.57;;;1.00;;
19127;SDS011;9696;53.686;10.094;2022-12-07T15:31:25;3.83;;;1.23;;
19127;SDS011;9696;53.686;10.094;2022-12-07T15:34:19;1.37;;;0.77;;
19127;SDS011;9696;53.686;10.094;2022-12-07T15:36:51;1.70;;;0.93;;
19127;SDS011;9696;53.686;10.094;2022-12-07T15:39:20;6.47;;;1.20;;
19127;SDS011;9696;53.686;10.094;2022-12-07T15:41:55;2.23;;;1.13;;
19127;SDS011;9696;53.686;10.094;2022-12-07T15:44:25;1.53;;;0.87;;
19127;SDS011;9696;53.686;10.094;2022-12-07T15:47:12;1.80;;;1.03;;
19127;SDS011;9696;53.686;10.094;2022-12-07T15:49:44;3.70;;;1.37;;
19127;SDS011;9696;53.686;10.094;2022-12-07T15:52:15;5.57;;;0.80;;
19127;SDS011;9696;53.686;10.094;2022-12-07T15:54:53;7.83;;;1.00;;
19127;SDS011;9696;53.686;10.094;2022-12-07T15:57:23;2.77;;;1.17;;
19127;SDS011;9696;53.686;10.094;2022-12-07T15:59:53;1.10;;;0.80;;
19127;SDS011;9696;53.686;10.094;2022-12-07T16:02:25;3.20;;;1.03;;
19127;SDS011;9696;53.686;10.094;2022-12-07T16:05:01;2.70;;;0.80;;
19127;SDS011;9696;53.686;10.094;2022-12-07T16:07:33;1.97;;;0.87;;
19127;SDS011;9696;53.686;10.094;2022-12-07T16:10:08;1.07;;;0.73;;
19127;SDS011;9696;53.686;10.094;2022-12-07T16:12:38;5.30;;;1.70;;
19127;SDS011;9696;53.686;10.094;2022-12-07T16:15:07;1.90;;;1.20;;
19127;SDS011;9696;53.686;10.094;2022-12-07T16:17:38;6.63;;;1.37;;
19127;SDS011;9696;53.686;10.094;2022-12-07T16:20:09;5.90;;;1.77;;
19127;SDS011;9696;53.686;10.094;2022-12-07T16:22:41;1.97;;;1.03;;
19127;SDS011;9696;53.686;10.094;2022-12-07T16:25:12;3.57;;;1.00;;
19127;SDS011;9696;53.686;10.094;2022-12-07T16:27:42;3.80;;;1.10;;
19127;SDS011;9696;53.686;10.094;2022-12-07T16:30:12;3.80;;;1.17;;
19127;SDS011;9696;53.686;10.094;2022-12-07T16:32:43;3.63;;;1.00;;
19127;SDS011;9696;53.686;10.094;2022-12-07T16:35:15;1.63;;;1.37;;
19127;SDS011;9696;53.686;10.094;2022-12-07T16:37:47;2.77;;;1.70;;
19127;SDS011;9696;53.686;10.094;2022-12-07T16:40:17;1.53;;;1.30;;
19127;SDS011;9696;53.686;10.094;2022-12-07T16:42:46;1.77;;;1.10;;
19127;SDS011;9696;53.686;10.094;2022-12-07T16:45:16;1.40;;;1.00;;
19127;SDS011;9696;53.686;10.094;2022-12-07T16:47:47;1.43;;;0.93;;
19127;SDS011;9696;53.686;10.094;2022-12-07T16:50:17;4.60;;;0.93;;
19127;SDS011;9696;53.686;10.094;2022-12-07T16:52:52;6.03;;;1.43;;
19127;SDS011;9696;53.686;10.094;2022-12-07T16:55:26;4.07;;;1.33;;
19127;SDS011;9696;53.686;10.094;2022-12-07T16:57:55;6.97;;;1.43;;
19127;SDS011;9696;53.686;10.094;2022-12-07T17:00:28;5.77;;;1.63;;
19127;SDS011;9696;53.686;10.094;2022-12-07T17:02:58;3.50;;;1.90;;
19127;SDS011;9696;53.686;10.094;2022-12-07T17:05:30;2.57;;;1.50;;
19127;SDS011;9696;53.686;10.094;2022-12-07T17:08:07;3.83;;;2.03;;
19127;SDS011;9696;53.686;10.094;2022-12-07T17:10:42;5.27;;;2.87;;
19127;SDS011;9696;53.686;10.094;2022-12-07T17:13:12;5.27;;;2.07;;
19127;SDS011;9696;53.686;10.094;2022-12-07T17:16:03;4.80;;;2.37;;